Portada
METAR-TAF:

METAR-TAF

Aeropuertos :

Aeropuerto Internacional de Pafos

Pafos, Chipre

latitud: 34-43N, longitud: 032-29E, altitud: 11 m

Observación

El informe se hizo hace 34 minutos, a las 00:00 UTC
Viento 9 kt del norte-noreste
Temperatura 11°C
Humedad 62%
Presión 1018 hPa
Visibilidad 10 km o más
Escasas nubes a una altura de 3000 ft

METAR: LCPH 060000Z 03009KT 9999 FEW030 11/04 Q1018

Hora: 02:34 (00:34 UTC)

Pronóstico

El informe se hizo hace 1 hora y 4 minutos, a las 23:30 UTC
Pronóstico válido del 06 a las 00 UTC al 06 a las 24 UTC
Viento 9 kt del noreste
Visibilidad 10 km o más
Escasas nubes a una altura de 3000 ft
Evolucionando progresivamente
del 06 a las 07 UTC al 06 a las 11 UTC
Viento 10 kt del sureste
Evolucionando progresivamente
del 06 a las 15 UTC al 06 a las 18 UTC
Viento 9 kt del norte-noreste

TAF: LCPH 052330Z 0600/0624 04009KT 9999 FEW030 BECMG 0607/0611 14010KT BECMG 0615/0618 02009KT

Observaciones y pronósticos meteorológicos de más de 4000 aeropuertos (mensajes METAR y TAF).

Los puntos amarillos y rojos representan las estaciones disponibles.

Ponga el ratón en el punto deseado para ver el nombre de la estación.

Haga clic para ver las observaciones y los pronósticos meteorológicos.

Para cambiar el mapa : haga clic en los botones verdes con una cruz de color negro para hacer un zoom, en el botón verde con un guión para alejar o en las flechas verdes para mapas adyacentes.


METAR-TAF: